createdAt,value
2018-08-12T00:02:23.658Z,15.63
2018-08-12T00:04:56.827Z,15.67
2018-08-12T00:07:26.716Z,15.72
2018-08-12T00:09:55.165Z,15.67
2018-08-12T00:12:23.629Z,15.60
2018-08-12T00:14:52.133Z,15.56
2018-08-12T00:17:20.751Z,15.55
2018-08-12T00:19:49.209Z,15.54
2018-08-12T00:22:18.131Z,15.46
2018-08-12T00:24:46.689Z,15.44
2018-08-12T00:27:15.189Z,15.41
2018-08-12T00:29:43.713Z,15.31
2018-08-12T00:32:12.239Z,15.27
2018-08-12T00:34:40.704Z,15.18
2018-08-12T00:37:09.654Z,15.15
2018-08-12T00:39:38.415Z,15.13
2018-08-12T00:42:06.869Z,15.07
2018-08-12T00:44:35.353Z,15.03
2018-08-12T00:47:03.841Z,15.08
2018-08-12T00:49:32.513Z,15.00
2018-08-12T00:52:01.085Z,14.96
2018-08-12T00:54:29.604Z,14.91
2018-08-12T00:56:58.101Z,14.86
2018-08-12T00:59:26.617Z,14.80
2018-08-12T01:01:55.117Z,14.77
2018-08-12T01:04:23.565Z,14.72
2018-08-12T01:06:52.087Z,14.77
2018-08-12T01:09:20.825Z,14.77
2018-08-12T01:11:49.282Z,14.72
2018-08-12T01:14:18.477Z,14.69
2018-08-12T01:16:46.984Z,14.67
2018-08-12T01:19:15.810Z,14.62
2018-08-12T01:21:44.333Z,14.67
2018-08-12T01:24:12.781Z,14.61
2018-08-12T01:26:41.257Z,14.60
2018-08-12T01:29:09.717Z,14.53
2018-08-12T01:31:38.233Z,14.50
2018-08-12T01:34:06.761Z,14.52
2018-08-12T01:36:35.325Z,14.51
2018-08-12T01:39:04.233Z,14.52
2018-08-12T01:41:32.810Z,14.45
2018-08-12T01:44:01.235Z,14.34
2018-08-12T01:46:29.743Z,14.29
2018-08-12T01:48:58.316Z,14.23
2018-08-12T01:51:27.025Z,14.26
2018-08-12T01:53:55.768Z,14.23
2018-08-12T01:56:24.245Z,14.25
2018-08-12T01:58:52.744Z,14.24
2018-08-12T02:01:21.389Z,14.24
2018-08-12T02:03:49.902Z,14.18
2018-08-12T02:06:18.652Z,14.15
2018-08-12T02:08:47.081Z,14.11
2018-08-12T02:11:15.576Z,14.05
2018-08-12T02:13:44.157Z,14.05
2018-08-12T02:16:12.557Z,14.05
2018-08-12T02:18:41.017Z,13.98
2018-08-12T02:21:09.497Z,13.90
2018-08-12T02:23:38.037Z,13.87
2018-08-12T02:26:06.569Z,13.87
2018-08-12T02:28:35.065Z,13.81
2018-08-12T02:31:03.668Z,13.72
2018-08-12T02:33:32.089Z,13.67
2018-08-12T02:36:00.573Z,13.67
2018-08-12T02:38:29.078Z,13.72
2018-08-12T02:40:57.573Z,13.65
2018-08-12T02:43:26.018Z,13.61
2018-08-12T02:45:54.548Z,13.57
2018-08-12T02:48:23.062Z,13.55
2018-08-12T02:50:51.461Z,13.54
2018-08-12T02:53:20.376Z,13.50
2018-08-12T02:55:50.494Z,13.46
2018-08-12T02:58:20.266Z,13.44
2018-08-12T03:00:49.029Z,13.47
2018-08-12T03:03:18.529Z,13.54
2018-08-12T03:05:46.961Z,13.55
2018-08-12T03:08:15.454Z,13.57
2018-08-12T03:10:43.913Z,13.55
2018-08-12T03:13:12.410Z,13.52
2018-08-12T03:15:40.855Z,13.42
2018-08-12T03:18:09.401Z,13.41
2018-08-12T03:20:37.853Z,13.39
2018-08-12T03:23:06.605Z,13.34
2018-08-12T03:25:35.140Z,13.24
2018-08-12T03:28:03.650Z,13.19
2018-08-12T03:30:32.209Z,13.19
2018-08-12T03:33:00.638Z,13.18
2018-08-12T03:35:29.150Z,13.12
2018-08-12T03:37:57.609Z,13.06
2018-08-12T03:40:26.097Z,13.10
2018-08-12T03:42:54.711Z,13.14
2018-08-12T03:45:23.181Z,13.12
2018-08-12T03:47:51.674Z,13.04
2018-08-12T03:50:20.196Z,12.98
2018-08-12T03:52:48.725Z,12.97
2018-08-12T03:55:17.789Z,12.96
2018-08-12T03:57:46.274Z,12.94
2018-08-12T04:00:17.217Z,12.94
2018-08-12T04:02:47.114Z,12.93
2018-08-12T04:05:16.026Z,13.10
2018-08-12T04:07:44.549Z,13.13
2018-08-12T04:10:13.165Z,13.07
2018-08-12T04:12:41.647Z,12.92
2018-08-12T04:15:11.493Z,12.82
2018-08-12T04:17:40.253Z,12.80
2018-08-12T04:20:10.014Z,12.70
2018-08-12T04:22:38.657Z,12.67
2018-08-12T04:25:07.209Z,12.69
2018-08-12T04:27:35.637Z,12.72
2018-08-12T04:30:05.246Z,12.68
2018-08-12T04:32:33.793Z,12.67
2018-08-12T04:35:02.249Z,12.66
2018-08-12T04:37:30.697Z,12.68
2018-08-12T04:39:59.250Z,12.73
2018-08-12T04:42:27.700Z,12.74
2018-08-12T04:44:56.172Z,12.82
2018-08-12T04:47:24.692Z,12.81
2018-08-12T04:49:53.122Z,12.80
2018-08-12T04:52:21.941Z,12.82
2018-08-12T04:54:50.425Z,12.85
2018-08-12T04:57:20.226Z,12.89
2018-08-12T04:59:48.689Z,12.93
2018-08-12T05:02:17.624Z,12.94
2018-08-12T05:04:46.090Z,13.00
2018-08-12T05:07:14.541Z,13.07
2018-08-12T05:09:43.049Z,13.11
2018-08-12T05:12:11.609Z,13.14
2018-08-12T05:14:40.121Z,13.21
2018-08-12T05:17:08.772Z,13.24
2018-08-12T05:19:37.247Z,13.29
2018-08-12T05:22:05.766Z,13.38
2018-08-12T05:24:34.237Z,13.49
2018-08-12T05:27:05.603Z,13.56
2018-08-12T05:29:34.185Z,13.65
2018-08-12T05:32:02.678Z,13.70
2018-08-12T05:34:31.124Z,13.82
2018-08-12T05:36:59.650Z,13.91
2018-08-12T05:39:28.165Z,14.02
2018-08-12T05:41:56.682Z,14.13
2018-08-12T05:44:25.293Z,14.24
2018-08-12T05:46:53.909Z,14.34
2018-08-12T05:49:22.633Z,14.45
2018-08-12T05:51:51.098Z,14.54
2018-08-12T05:54:19.993Z,14.57
2018-08-12T05:56:48.521Z,14.60
2018-08-12T05:59:17.104Z,14.66
2018-08-12T06:01:45.601Z,14.73
2018-08-12T06:04:14.084Z,14.80
2018-08-12T06:06:42.981Z,14.86
2018-08-12T06:09:11.816Z,14.98
2018-08-12T06:11:40.301Z,15.06
2018-08-12T06:14:09.100Z,15.16
2018-08-12T06:16:37.601Z,15.24
2018-08-12T06:19:06.186Z,15.41
2018-08-12T06:21:34.740Z,15.54
2018-08-12T06:24:03.169Z,15.61
2018-08-12T06:26:31.733Z,15.63
2018-08-12T06:29:00.276Z,15.67
2018-08-12T06:31:28.935Z,15.73
2018-08-12T06:33:57.523Z,15.79
2018-08-12T06:36:25.994Z,15.92
2018-08-12T06:38:54.490Z,16.05
2018-08-12T06:41:22.904Z,16.18
2018-08-12T06:43:51.560Z,16.28
2018-08-12T06:46:20.382Z,16.38
2018-08-12T06:48:49.017Z,16.44
2018-08-12T06:51:17.827Z,16.50
2018-08-12T06:53:46.366Z,16.64
2018-08-12T06:56:14.897Z,16.75
2018-08-12T06:58:43.390Z,16.87
2018-08-12T07:01:11.889Z,16.98
2018-08-12T07:03:40.354Z,17.09
2018-08-12T07:06:08.834Z,17.19
2018-08-12T07:08:37.350Z,17.31
2018-08-12T07:11:05.857Z,17.50
2018-08-12T07:13:34.371Z,17.59
2018-08-12T07:16:02.812Z,17.69
2018-08-12T07:18:31.317Z,17.78
2018-08-12T07:20:59.801Z,17.94
2018-08-12T07:23:28.331Z,18.07
2018-08-12T07:25:56.794Z,18.20
2018-08-12T07:28:25.237Z,18.32
2018-08-12T07:30:53.767Z,18.45
2018-08-12T07:33:23.509Z,18.56
2018-08-12T07:35:52.041Z,18.68
2018-08-12T07:38:20.548Z,18.82
2018-08-12T07:40:49.057Z,18.83
2018-08-12T07:43:17.905Z,18.95
2018-08-12T07:45:46.371Z,19.08
2018-08-12T07:48:16.081Z,19.18
2018-08-12T07:50:44.561Z,19.29
2018-08-12T07:53:13.014Z,19.38
2018-08-12T07:55:41.773Z,19.55
2018-08-12T07:58:10.116Z,19.73
2018-08-12T08:00:38.723Z,19.83
2018-08-12T08:03:07.439Z,19.96
2018-08-12T08:05:35.998Z,20.12
2018-08-12T08:08:07.139Z,20.33
2018-08-12T08:10:35.713Z,20.45
2018-08-12T08:13:04.167Z,20.59
2018-08-12T08:15:32.669Z,20.77
2018-08-12T08:18:01.160Z,20.91
2018-08-12T08:20:29.750Z,21.00
2018-08-12T08:22:58.183Z,21.16
2018-08-12T08:25:26.759Z,21.35
2018-08-12T08:27:55.866Z,21.51
2018-08-12T08:30:25.172Z,21.67
2018-08-12T08:32:53.748Z,21.82
2018-08-12T08:35:22.546Z,21.96
2018-08-12T08:37:51.022Z,22.09
2018-08-12T08:40:20.048Z,22.17
2018-08-12T08:42:48.685Z,22.35
2018-08-12T08:45:19.546Z,22.63
2018-08-12T08:47:49.310Z,22.64
2018-08-12T08:50:19.420Z,22.89
2018-08-12T08:52:47.991Z,23.06
2018-08-12T08:55:16.987Z,23.25
2018-08-12T08:57:46.571Z,23.25
2018-08-12T09:00:18.228Z,23.43
2018-08-12T09:02:48.267Z,23.65
2018-08-12T09:05:17.982Z,23.89
2018-08-12T09:07:46.576Z,24.05
2018-08-12T09:10:18.189Z,24.26
2018-08-12T09:12:46.720Z,24.53
2018-08-12T09:15:17.737Z,24.58
2018-08-12T09:17:46.789Z,24.75
2018-08-12T09:20:17.122Z,24.59
2018-08-12T09:22:45.697Z,24.66
2018-08-12T09:25:14.521Z,24.91
2018-08-12T09:27:43.109Z,25.10
2018-08-12T09:30:18.653Z,25.42
2018-08-12T09:32:47.872Z,25.52
2018-08-12T09:35:16.322Z,25.81
2018-08-12T09:37:44.745Z,26.11
2018-08-12T09:40:14.573Z,25.99
2018-08-12T09:42:44.077Z,26.33
2018-08-12T09:45:14.886Z,26.40
2018-08-12T09:47:43.340Z,26.58
2018-08-12T09:50:14.242Z,27.17
2018-08-12T09:52:43.018Z,28.08
2018-08-12T09:55:12.506Z,28.73
2018-08-12T09:57:40.978Z,29.50
2018-08-12T10:00:17.021Z,30.52
2018-08-12T10:02:45.549Z,30.64
2018-08-12T10:05:14.069Z,30.87
2018-08-12T10:07:42.957Z,30.62
2018-08-12T10:10:11.649Z,30.95
2018-08-12T10:12:40.413Z,31.21
2018-08-12T10:15:08.996Z,31.04
2018-08-12T10:17:38.669Z,31.54
2018-08-12T10:20:08.014Z,31.59
2018-08-12T10:22:37.097Z,32.20
2018-08-12T10:25:07.090Z,32.84
2018-08-12T10:27:35.685Z,32.85
2018-08-12T10:30:05.449Z,33.26
2018-08-12T10:32:33.933Z,33.61
2018-08-12T10:35:02.405Z,33.53
2018-08-12T10:37:30.930Z,33.88
2018-08-12T10:39:59.442Z,34.53
2018-08-12T10:42:27.931Z,33.75
2018-08-12T10:44:57.253Z,33.71
2018-08-12T10:47:25.757Z,34.85
2018-08-12T10:49:54.170Z,34.29
2018-08-12T10:52:22.754Z,35.37
2018-08-12T10:54:51.298Z,35.10
2018-08-12T11:00:05.903Z,36.17
2018-08-12T11:02:34.529Z,36.49
2018-08-12T11:05:03.218Z,36.58
2018-08-12T11:07:32.019Z,36.60
2018-08-12T11:10:00.498Z,36.80
2018-08-12T11:12:29.105Z,36.68
2018-08-12T11:14:57.556Z,37.27
2018-08-12T11:17:26.155Z,37.57
2018-08-12T11:19:55.268Z,37.84
2018-08-12T11:22:23.840Z,38.26
2018-08-12T11:24:52.278Z,38.35
2018-08-12T11:27:21.078Z,38.65
2018-08-12T11:29:49.573Z,38.91
2018-08-12T11:32:18.233Z,38.82
2018-08-12T11:34:46.747Z,39.67
2018-08-12T11:37:15.237Z,39.44
2018-08-12T11:39:43.654Z,39.50
2018-08-12T11:42:12.234Z,39.11
2018-08-12T11:44:40.757Z,39.02
2018-08-12T11:47:09.165Z,39.62
2018-08-12T11:49:37.625Z,40.63
2018-08-12T11:52:06.485Z,40.23
2018-08-12T11:54:35.039Z,40.13
2018-08-12T11:57:03.732Z,39.92
2018-08-12T11:59:32.228Z,41.58
2018-08-12T12:02:00.797Z,41.44
2018-08-12T12:04:29.342Z,41.92
2018-08-12T12:06:57.761Z,42.46
2018-08-12T12:09:26.217Z,42.77
2018-08-12T12:11:54.641Z,43.09
2018-08-12T12:14:23.114Z,42.84
2018-08-12T12:16:51.657Z,43.42
2018-08-12T12:19:20.826Z,43.79
2018-08-12T12:21:49.323Z,42.83
2018-08-12T12:24:18.094Z,42.78
2018-08-12T12:26:46.590Z,42.55
2018-08-12T12:29:15.210Z,41.26
2018-08-12T12:31:43.629Z,40.43
2018-08-12T12:34:12.169Z,41.11
2018-08-12T12:36:40.653Z,41.76
2018-08-12T12:39:10.609Z,41.78
2018-08-12T12:41:39.061Z,42.97
2018-08-12T12:44:07.781Z,43.73
2018-08-12T12:46:36.386Z,43.95
2018-08-12T12:49:04.974Z,44.26
2018-08-12T12:51:33.437Z,43.96
2018-08-12T12:54:02.128Z,44.35
2018-08-12T12:56:30.659Z,44.35
2018-08-12T12:58:59.133Z,44.37
2018-08-12T13:01:27.633Z,44.45
2018-08-12T13:03:56.121Z,44.37
2018-08-12T13:06:24.537Z,44.88
2018-08-12T13:08:53.085Z,46.60
2018-08-12T13:11:21.885Z,47.20
2018-08-12T13:13:50.946Z,46.52
2018-08-12T13:16:19.814Z,45.94
2018-08-12T13:18:48.307Z,46.61
2018-08-12T13:21:17.117Z,46.94
2018-08-12T13:23:45.741Z,47.05
2018-08-12T13:26:14.242Z,47.41
2018-08-12T13:28:42.737Z,48.12
2018-08-12T13:31:11.258Z,48.09
2018-08-12T13:33:39.701Z,47.63
2018-08-12T13:36:08.169Z,47.07
2018-08-12T13:38:36.698Z,47.42
2018-08-12T13:41:05.505Z,47.38
2018-08-12T13:43:34.002Z,48.61
2018-08-12T13:46:02.441Z,48.69
2018-08-12T13:48:30.926Z,48.91
2018-08-12T13:50:59.379Z,48.54
2018-08-12T13:53:27.837Z,46.78
2018-08-12T13:55:56.317Z,48.86
2018-08-12T13:58:24.785Z,48.22
2018-08-12T14:00:53.317Z,48.25
2018-08-12T14:03:21.937Z,47.11
2018-08-12T14:05:50.390Z,48.14
2018-08-12T14:08:19.329Z,48.45
2018-08-12T14:10:48.010Z,48.60
2018-08-12T14:13:16.566Z,49.03
2018-08-12T14:15:45.054Z,47.73
2018-08-12T14:18:13.509Z,47.32
2018-08-12T14:20:41.990Z,48.72
2018-08-12T14:23:10.529Z,49.28
2018-08-12T14:25:39.085Z,48.77
2018-08-12T14:28:07.660Z,48.04
2018-08-12T14:30:36.185Z,48.35
2018-08-12T14:33:04.974Z,49.67
2018-08-12T14:35:33.491Z,49.23
2018-08-12T14:38:01.897Z,49.91
2018-08-12T14:40:30.373Z,49.90
2018-08-12T14:42:58.844Z,49.25
2018-08-12T14:45:27.318Z,49.12
2018-08-12T14:47:55.742Z,48.71
2018-08-12T14:50:24.282Z,50.28
2018-08-12T14:52:52.766Z,50.54
2018-08-12T14:55:21.629Z,49.88
2018-08-12T14:57:50.100Z,49.33
2018-08-12T15:00:20.107Z,48.55
2018-08-12T15:02:49.890Z,50.42
2018-08-12T15:05:18.981Z,50.64
2018-08-12T15:07:47.413Z,50.85
2018-08-12T15:10:15.929Z,50.70
2018-08-12T15:12:44.739Z,51.03
2018-08-12T15:15:14.428Z,50.58
2018-08-12T15:17:44.059Z,49.80
2018-08-12T15:20:13.378Z,49.53
2018-08-12T15:22:42.297Z,48.98
2018-08-12T15:25:17.542Z,49.77
2018-08-12T15:27:46.094Z,49.43
2018-08-12T15:30:14.652Z,48.62
2018-08-12T15:32:43.291Z,49.26
2018-08-12T15:35:11.785Z,49.58
2018-08-12T15:37:40.277Z,50.40
2018-08-12T15:40:12.377Z,50.42
2018-08-12T15:42:41.290Z,49.53
2018-08-12T15:45:11.995Z,49.64
2018-08-12T15:47:41.013Z,49.19
2018-08-12T15:50:10.188Z,49.76
2018-08-12T15:52:39.105Z,49.72
2018-08-12T15:55:08.185Z,49.72
2018-08-12T15:57:36.881Z,49.21
2018-08-12T16:00:09.301Z,49.58
2018-08-12T16:02:37.766Z,50.62
2018-08-12T16:05:06.229Z,49.76
2018-08-12T16:07:34.681Z,49.96
2018-08-12T16:10:03.320Z,50.28
2018-08-12T16:12:31.781Z,48.79
2018-08-12T16:15:00.302Z,49.55
2018-08-12T16:17:28.741Z,50.57
2018-08-12T16:19:57.301Z,49.44
2018-08-12T16:22:25.922Z,50.15
2018-08-12T16:24:54.274Z,50.36
2018-08-12T16:27:23.025Z,50.68
2018-08-12T16:29:51.506Z,50.33
2018-08-12T16:32:20.789Z,50.15
2018-08-12T16:34:49.225Z,49.90
2018-08-12T16:37:18.057Z,50.10
2018-08-12T16:39:46.530Z,50.59
2018-08-12T16:42:15.001Z,50.53
2018-08-12T16:44:43.530Z,49.72
2018-08-12T16:47:12.025Z,49.15
2018-08-12T16:49:40.591Z,49.80
2018-08-12T16:52:09.033Z,48.79
2018-08-12T16:54:37.767Z,48.96
2018-08-12T16:57:06.486Z,48.55
2018-08-12T16:59:35.095Z,47.94
2018-08-12T17:02:03.666Z,46.44
2018-08-12T17:04:32.243Z,47.15
2018-08-12T17:07:00.738Z,47.46
2018-08-12T17:09:29.189Z,47.54
2018-08-12T17:11:57.781Z,47.33
2018-08-12T17:14:26.349Z,45.82
2018-08-12T17:16:54.948Z,42.81
2018-08-12T17:19:23.505Z,40.12
2018-08-12T17:21:51.931Z,37.96
2018-08-12T17:24:20.824Z,37.02
2018-08-12T17:26:49.286Z,37.58
2018-08-12T17:29:18.049Z,36.99
2018-08-12T17:31:46.582Z,36.14
2018-08-12T17:34:14.985Z,35.24
2018-08-12T17:36:43.572Z,34.33
2018-08-12T17:39:12.411Z,33.72
2018-08-12T17:41:40.886Z,33.66
2018-08-12T17:44:09.569Z,33.63
2018-08-12T17:46:38.098Z,34.32
2018-08-12T17:49:06.598Z,34.43
2018-08-12T17:51:35.036Z,35.81
2018-08-12T17:54:03.600Z,37.81
2018-08-12T17:56:32.149Z,39.21
2018-08-12T17:59:00.610Z,38.81
2018-08-12T18:01:29.331Z,37.23
2018-08-12T18:03:57.794Z,35.00
2018-08-12T18:06:26.449Z,33.55
2018-08-12T18:08:55.003Z,32.38
2018-08-12T18:11:23.613Z,31.78
2018-08-12T18:13:52.202Z,31.17
2018-08-12T18:16:20.746Z,30.77
2018-08-12T18:18:49.346Z,30.41
2018-08-12T18:21:18.534Z,30.13
2018-08-12T18:23:47.110Z,29.86
2018-08-12T18:26:15.562Z,29.63
2018-08-12T18:28:44.138Z,29.42
2018-08-12T18:31:12.594Z,29.19
2018-08-12T18:33:41.250Z,29.01
2018-08-12T18:36:09.699Z,28.82
2018-08-12T18:38:38.234Z,28.66
2018-08-12T18:41:06.749Z,28.47
2018-08-12T18:43:35.257Z,28.28
2018-08-12T18:46:03.902Z,28.00
2018-08-12T18:48:32.382Z,27.80
2018-08-12T18:51:00.949Z,27.66
2018-08-12T18:53:29.484Z,27.46
2018-08-12T18:55:58.050Z,27.36
2018-08-12T18:58:26.512Z,27.14
2018-08-12T19:00:55.137Z,26.92
2018-08-12T19:03:23.689Z,26.78
2018-08-12T19:05:52.192Z,26.71
2018-08-12T19:08:20.987Z,26.64
2018-08-12T19:10:49.469Z,26.49
2018-08-12T19:13:18.345Z,26.46
2018-08-12T19:15:46.874Z,26.36
2018-08-12T19:18:15.290Z,26.23
2018-08-12T19:20:43.793Z,26.10
2018-08-12T19:23:12.359Z,26.02
2018-08-12T19:25:40.920Z,25.93
2018-08-12T19:28:09.441Z,25.86
2018-08-12T19:30:38.218Z,25.79
2018-08-12T19:33:06.755Z,25.61
2018-08-12T19:35:35.374Z,25.41
2018-08-12T19:38:03.837Z,25.38
2018-08-12T19:40:32.577Z,25.32
2018-08-12T19:43:00.987Z,25.29
2018-08-12T19:45:30.574Z,25.32
2018-08-12T19:47:59.145Z,25.21
2018-08-12T19:50:27.745Z,25.08
2018-08-12T19:52:56.166Z,25.01
2018-08-12T19:55:25.020Z,24.96
2018-08-12T19:57:53.437Z,24.92
2018-08-12T20:00:21.945Z,24.83
2018-08-12T20:02:50.602Z,24.70
2018-08-12T20:05:19.657Z,24.57
2018-08-12T20:07:48.335Z,24.50
2018-08-12T20:10:16.787Z,24.52
2018-08-12T20:12:45.433Z,24.47
2018-08-12T20:17:39.741Z,24.33
2018-08-12T20:20:10.569Z,24.17
2018-08-12T20:22:38.994Z,24.09
2018-08-12T20:25:07.761Z,24.00
2018-08-12T20:27:36.273Z,23.94
2018-08-12T20:30:05.710Z,23.86
2018-08-12T20:32:34.278Z,23.74
2018-08-12T20:35:02.704Z,23.67
2018-08-12T20:37:31.237Z,23.57
2018-08-12T20:39:59.673Z,23.49
2018-08-12T20:42:28.312Z,23.43
2018-08-12T20:44:56.705Z,23.32
2018-08-12T20:47:25.129Z,23.24
2018-08-12T20:49:53.605Z,23.19
2018-08-12T20:52:22.222Z,23.11
2018-08-12T20:54:50.694Z,23.01
2018-08-12T20:57:19.492Z,22.97
2018-08-12T20:59:47.906Z,22.88
2018-08-12T21:02:16.441Z,22.81
2018-08-12T21:04:44.934Z,22.73
2018-08-12T21:07:13.425Z,22.67
2018-08-12T21:09:41.813Z,22.56
2018-08-12T21:12:10.458Z,22.47
2018-08-12T21:14:38.760Z,22.42
2018-08-12T21:17:07.364Z,22.33
2018-08-12T21:19:35.813Z,22.26
2018-08-12T21:22:05.042Z,22.23
2018-08-12T21:24:33.598Z,22.17
2018-08-12T21:27:02.066Z,22.16
2018-08-12T21:29:30.580Z,22.17
2018-08-12T21:31:59.038Z,22.13
2018-08-12T21:34:27.417Z,22.06
2018-08-12T21:36:55.885Z,22.01
2018-08-12T21:39:24.293Z,21.96
2018-08-12T21:41:52.837Z,21.98
2018-08-12T21:44:21.517Z,22.00
2018-08-12T21:46:49.998Z,22.00
2018-08-12T21:49:18.646Z,21.97
2018-08-12T21:51:47.074Z,21.93
2018-08-12T21:54:15.509Z,21.80
2018-08-12T21:56:44.093Z,21.65
2018-08-12T21:59:12.675Z,21.51
2018-08-12T22:01:41.089Z,21.41
2018-08-12T22:04:09.655Z,21.38
2018-08-12T22:06:38.157Z,21.25
2018-08-12T22:09:08.946Z,21.25
2018-08-12T22:11:37.370Z,21.25
2018-08-12T22:14:06.006Z,21.24
2018-08-12T22:16:34.513Z,21.21
2018-08-12T22:19:02.985Z,21.20
2018-08-12T22:21:31.449Z,21.21
2018-08-12T22:23:59.957Z,21.14
2018-08-12T22:26:28.415Z,21.09
2018-08-12T22:28:56.854Z,21.05
2018-08-12T22:31:25.345Z,20.95
2018-08-12T22:33:53.872Z,20.96
2018-08-12T22:36:22.565Z,20.92
2018-08-12T22:38:51.018Z,20.91
2018-08-12T22:41:19.762Z,20.95
2018-08-12T22:43:48.278Z,20.94
2018-08-12T22:46:16.859Z,20.89
2018-08-12T22:48:45.336Z,20.85
2018-08-12T22:51:13.859Z,20.85
2018-08-12T22:53:42.637Z,20.91
2018-08-12T22:56:11.086Z,20.83
2018-08-12T22:58:39.581Z,20.83
2018-08-12T23:01:09.130Z,20.82
2018-08-12T23:03:37.809Z,20.84
2018-08-12T23:06:06.417Z,20.87
2018-08-12T23:08:34.990Z,20.92
2018-08-12T23:11:03.557Z,20.85
2018-08-12T23:13:32.139Z,20.72
2018-08-12T23:16:16.005Z,20.64
2018-08-12T23:18:44.669Z,20.64
2018-08-12T23:21:14.293Z,20.62
2018-08-12T23:23:44.843Z,20.65
2018-08-12T23:26:14.685Z,20.64
2018-08-12T23:28:43.221Z,20.57
2018-08-12T23:31:11.656Z,20.48
2018-08-12T23:33:40.113Z,20.40
2018-08-12T23:36:09.105Z,20.35
2018-08-12T23:38:38.106Z,20.39
2018-08-12T23:41:07.601Z,20.38
2018-08-12T23:43:36.089Z,20.33
2018-08-12T23:46:04.642Z,20.29
2018-08-12T23:48:33.213Z,20.21
2018-08-12T23:51:02.537Z,20.13
2018-08-12T23:53:31.345Z,20.14
2018-08-12T23:55:59.892Z,20.11
2018-08-12T23:58:28.448Z,20.06
